createdAt,value
2022-11-14T00:00:24.828Z,68.50
2022-11-14T00:02:52.610Z,68.81
2022-11-14T00:05:21.895Z,68.85
2022-11-14T00:07:49.527Z,68.88
2022-11-14T00:10:18.041Z,68.99
2022-11-14T00:12:45.964Z,68.81
2022-11-14T00:15:14.168Z,68.89
2022-11-14T00:17:42.048Z,68.68
2022-11-14T00:20:11.973Z,68.80
2022-11-14T00:22:41.141Z,68.87
2022-11-14T00:25:09.516Z,69.23
2022-11-14T00:27:37.221Z,68.90
2022-11-14T00:30:05.656Z,68.93
2022-11-14T00:32:33.445Z,69.04
2022-11-14T00:35:01.086Z,68.89
2022-11-14T00:37:28.723Z,69.06
2022-11-14T00:39:57.700Z,69.28
2022-11-14T00:42:25.370Z,68.97
2022-11-14T00:44:52.986Z,69.28
2022-11-14T00:47:20.706Z,69.43
2022-11-14T00:49:48.327Z,69.36
2022-11-14T00:52:15.950Z,69.33
2022-11-14T00:54:43.608Z,69.48
2022-11-14T00:57:12.675Z,69.57
2022-11-14T00:59:40.294Z,69.24
2022-11-14T01:02:08.083Z,69.38
2022-11-14T01:04:35.817Z,69.30
2022-11-14T01:07:03.482Z,69.40
2022-11-14T01:09:31.217Z,69.60
2022-11-14T01:11:58.961Z,69.44
2022-11-14T01:14:28.010Z,69.58
2022-11-14T01:16:55.812Z,69.71
2022-11-14T01:19:23.463Z,69.59
2022-11-14T01:21:51.077Z,69.59
2022-11-14T01:24:18.701Z,69.77
2022-11-14T01:26:46.328Z,69.96
2022-11-14T01:29:13.970Z,70.32
2022-11-14T01:31:42.970Z,70.10
2022-11-14T01:34:10.918Z,69.71
2022-11-14T01:36:38.543Z,69.91
2022-11-14T01:39:06.238Z,69.50
2022-11-14T01:41:33.926Z,69.72
2022-11-14T01:44:01.491Z,69.60
2022-11-14T01:46:31.693Z,69.27
2022-11-14T01:49:03.515Z,69.59
2022-11-14T01:51:35.778Z,69.30
2022-11-14T01:54:05.398Z,69.27
2022-11-14T01:56:35.110Z,69.54
2022-11-14T01:59:06.525Z,69.47
2022-11-14T02:01:37.539Z,69.54
2022-11-14T02:04:11.630Z,69.72
2022-11-14T02:06:41.995Z,69.59
2022-11-14T02:09:09.572Z,69.43
2022-11-14T02:11:39.418Z,69.46
2022-11-14T02:14:07.401Z,69.31
2022-11-14T02:16:35.347Z,69.05
2022-11-14T02:19:03.036Z,69.74
2022-11-14T02:21:32.147Z,69.33
2022-11-14T02:23:59.815Z,69.19
2022-11-14T02:26:27.504Z,69.93
2022-11-14T02:28:56.416Z,69.89
2022-11-14T02:31:24.078Z,69.82
2022-11-14T02:33:51.705Z,69.79
2022-11-14T02:36:19.363Z,69.74
2022-11-14T02:38:48.479Z,69.90
2022-11-14T02:41:16.177Z,69.77
2022-11-14T02:43:43.908Z,70.03
2022-11-14T02:46:11.713Z,69.89
2022-11-14T02:48:39.349Z,70.01
2022-11-14T02:51:07.479Z,70.08
2022-11-14T02:53:35.179Z,70.05
2022-11-14T02:56:04.304Z,70.36
2022-11-14T02:58:32.173Z,70.33
2022-11-14T03:01:19.556Z,70.17
2022-11-14T03:03:47.751Z,70.26
2022-11-14T03:06:15.454Z,70.04
2022-11-14T03:08:43.232Z,69.86
2022-11-14T03:11:12.285Z,69.95
2022-11-14T03:13:39.916Z,69.81
2022-11-14T03:16:08.455Z,70.05
2022-11-14T03:18:36.751Z,69.99
2022-11-14T03:21:08.031Z,69.91
2022-11-14T03:23:35.728Z,69.97
2022-11-14T03:26:03.953Z,69.92
2022-11-14T03:28:33.308Z,69.67
2022-11-14T03:31:00.941Z,69.60
2022-11-14T03:33:28.641Z,69.73
2022-11-14T03:35:56.301Z,69.83
2022-11-14T03:38:23.947Z,69.60
2022-11-14T03:40:51.639Z,69.66
2022-11-14T03:43:20.784Z,69.63
2022-11-14T03:45:49.887Z,69.45
2022-11-14T03:48:17.689Z,69.69
2022-11-14T03:50:45.577Z,69.61
2022-11-14T03:53:13.199Z,69.50
2022-11-14T03:55:40.773Z,69.43
2022-11-14T03:58:08.408Z,69.39
2022-11-14T04:00:36.098Z,69.35
2022-11-14T04:03:05.280Z,69.21
2022-11-14T04:05:33.000Z,69.53
2022-11-14T04:08:00.646Z,69.42
2022-11-14T04:10:28.236Z,69.45
2022-11-14T04:12:55.919Z,69.61
2022-11-14T04:15:23.480Z,69.73
2022-11-14T04:17:51.102Z,69.90
2022-11-14T04:20:20.608Z,69.77
2022-11-14T04:22:48.267Z,69.94
2022-11-14T04:25:16.068Z,70.02
2022-11-14T04:27:44.462Z,70.32
2022-11-14T04:30:12.939Z,69.98
2022-11-14T04:32:40.593Z,69.71
2022-11-14T04:35:08.800Z,69.82
2022-11-14T04:37:39.268Z,70.06
2022-11-14T04:40:08.443Z,69.77
2022-11-14T04:42:36.076Z,70.16
2022-11-14T04:45:03.870Z,70.09
2022-11-14T04:47:31.930Z,69.94
2022-11-14T04:49:59.656Z,69.76
2022-11-14T04:52:27.768Z,69.92
2022-11-14T04:54:57.096Z,69.73
2022-11-14T04:57:24.755Z,69.74
2022-11-14T04:59:52.405Z,69.95
2022-11-14T05:02:20.043Z,69.70
2022-11-14T05:04:48.426Z,69.78
2022-11-14T05:07:16.334Z,70.01
2022-11-14T05:09:44.014Z,69.78
2022-11-14T05:12:13.053Z,70.00
2022-11-14T05:14:40.664Z,69.80
2022-11-14T05:17:08.291Z,69.88
2022-11-14T05:19:35.963Z,69.81
2022-11-14T05:22:03.594Z,69.75
2022-11-14T05:24:31.230Z,70.08
2022-11-14T05:27:00.111Z,69.93
2022-11-14T05:29:29.161Z,69.95
2022-11-14T05:31:57.776Z,69.88
2022-11-14T05:34:25.493Z,69.95
2022-11-14T05:36:53.164Z,69.81
2022-11-14T05:39:20.864Z,69.83
2022-11-14T05:41:48.506Z,69.95
2022-11-14T05:44:16.144Z,69.79
2022-11-14T05:46:45.196Z,69.94
2022-11-14T05:49:13.707Z,69.92
2022-11-14T05:51:43.486Z,70.00
2022-11-14T05:54:11.128Z,69.77
2022-11-14T05:56:38.771Z,69.58
2022-11-14T05:59:06.516Z,69.48
2022-11-14T06:01:34.266Z,69.66
2022-11-14T06:04:07.156Z,69.52
2022-11-14T06:06:34.809Z,69.55
2022-11-14T06:09:02.537Z,69.80
2022-11-14T06:11:30.136Z,69.46
2022-11-14T06:13:57.773Z,69.50
2022-11-14T06:16:25.594Z,69.82
2022-11-14T06:18:54.291Z,70.01
2022-11-14T06:21:25.109Z,69.72
2022-11-14T06:23:52.815Z,69.66
2022-11-14T06:26:22.642Z,69.57
2022-11-14T06:28:50.446Z,69.58
2022-11-14T06:31:18.846Z,70.23
2022-11-14T06:33:46.974Z,70.10
2022-11-14T06:36:14.953Z,69.77
2022-11-14T06:38:44.597Z,69.67
2022-11-14T06:41:13.461Z,69.91
2022-11-14T06:43:42.629Z,69.78
2022-11-14T06:46:12.680Z,69.79
2022-11-14T06:48:40.612Z,69.76
2022-11-14T06:51:08.559Z,69.90
2022-11-14T06:53:37.044Z,70.00
2022-11-14T06:56:07.610Z,70.00
2022-11-14T06:58:36.846Z,69.90
2022-11-14T07:01:06.321Z,70.03
2022-11-14T07:03:34.327Z,70.04
2022-11-14T07:06:02.093Z,70.02
2022-11-14T07:08:29.965Z,69.85
2022-11-14T07:11:02.501Z,69.88
2022-11-14T07:13:32.584Z,69.85
2022-11-14T07:16:00.568Z,70.00
2022-11-14T07:18:28.939Z,69.96
2022-11-14T07:21:01.152Z,70.28
2022-11-14T07:23:29.488Z,70.11
2022-11-14T07:25:57.090Z,70.45
2022-11-14T07:28:24.722Z,70.50
2022-11-14T07:30:53.731Z,70.30
2022-11-14T07:33:21.411Z,70.51
2022-11-14T07:35:49.504Z,70.68
2022-11-14T07:38:17.532Z,70.50
2022-11-14T07:40:59.087Z,70.44
2022-11-14T07:43:28.165Z,70.88
2022-11-14T07:46:00.100Z,70.83
2022-11-14T07:48:28.559Z,70.78
2022-11-14T07:51:00.281Z,70.86
2022-11-14T07:53:28.317Z,71.11
2022-11-14T07:55:55.964Z,70.90
2022-11-14T07:58:23.826Z,71.29
2022-11-14T08:00:51.545Z,71.40
2022-11-14T08:03:20.665Z,71.11
2022-11-14T08:05:48.372Z,71.42
2022-11-14T08:08:16.073Z,71.19
2022-11-14T08:10:43.868Z,71.14
2022-11-14T08:16:00.201Z,71.39
2022-11-14T08:18:29.547Z,71.36
2022-11-14T08:20:57.643Z,71.12
2022-11-14T08:23:25.402Z,71.50
2022-11-14T08:25:53.443Z,71.55
2022-11-14T08:28:21.128Z,71.41
2022-11-14T08:30:48.979Z,71.75
2022-11-14T08:33:16.767Z,71.80
2022-11-14T08:35:45.836Z,71.69
2022-11-14T08:38:13.584Z,71.59
2022-11-14T08:40:41.217Z,71.54
2022-11-14T08:43:11.187Z,71.47
2022-11-14T08:45:38.868Z,71.61
2022-11-14T08:48:07.125Z,71.74
2022-11-14T08:50:34.877Z,71.95
2022-11-14T08:53:03.935Z,71.93
2022-11-14T08:55:31.970Z,71.75
2022-11-14T08:57:59.703Z,71.79
2022-11-14T09:00:27.562Z,71.14
2022-11-14T09:02:55.319Z,71.72
2022-11-14T09:05:23.064Z,71.83
2022-11-14T09:07:50.724Z,71.78
2022-11-14T09:10:19.711Z,71.30
2022-11-14T09:12:47.332Z,70.81
2022-11-14T09:15:14.976Z,71.46
2022-11-14T09:17:42.633Z,71.60
2022-11-14T09:20:10.730Z,71.30
2022-11-14T09:22:38.467Z,71.11
2022-11-14T09:25:06.935Z,71.07
2022-11-14T09:27:35.955Z,70.71
2022-11-14T09:30:03.721Z,70.49
2022-11-14T09:32:31.419Z,71.03
2022-11-14T09:34:59.028Z,70.80
2022-11-14T09:37:27.535Z,70.09
2022-11-14T09:39:55.243Z,70.35
2022-11-14T09:42:51.176Z,70.48
2022-11-14T09:45:19.003Z,70.33
2022-11-14T09:47:49.522Z,70.66
2022-11-14T09:50:24.423Z,70.52
2022-11-14T09:52:55.987Z,70.46
2022-11-14T09:55:24.676Z,69.29
2022-11-14T09:57:53.670Z,68.68
2022-11-14T10:00:22.881Z,69.44
2022-11-14T10:03:03.063Z,69.16
2022-11-14T10:05:40.986Z,69.38
2022-11-14T10:08:18.226Z,69.47
2022-11-14T10:10:52.597Z,69.47
2022-11-14T10:13:35.778Z,69.37
2022-11-14T10:16:07.563Z,69.74
2022-11-14T10:18:44.418Z,69.81
2022-11-14T10:21:25.428Z,70.18
2022-11-14T10:23:57.739Z,69.78
2022-11-14T10:26:34.104Z,68.80
2022-11-14T10:29:25.699Z,68.80
2022-11-14T10:31:57.216Z,69.07
2022-11-14T10:34:29.303Z,68.23
2022-11-14T10:37:03.649Z,69.46
2022-11-14T10:39:36.467Z,68.15
2022-11-14T10:42:11.252Z,67.69
2022-11-14T10:44:46.679Z,68.50
2022-11-14T10:47:16.284Z,68.88
2022-11-14T10:49:47.801Z,69.05
2022-11-14T10:52:17.988Z,68.50
2022-11-14T10:54:47.760Z,68.40
2022-11-14T10:57:17.869Z,68.06
2022-11-14T10:59:47.404Z,68.73
2022-11-14T11:02:15.511Z,69.53
2022-11-14T11:04:44.092Z,68.51
2022-11-14T11:07:39.334Z,68.83
2022-11-14T11:11:33.609Z,68.96
2022-11-14T11:14:02.343Z,69.22
2022-11-14T11:16:30.376Z,68.46
2022-11-14T11:19:15.023Z,68.99
2022-11-14T11:21:50.383Z,67.91
2022-11-14T11:24:32.300Z,68.19
2022-11-14T11:27:23.692Z,67.59
2022-11-14T11:30:13.203Z,69.35
2022-11-14T11:32:40.775Z,67.94
2022-11-14T11:35:13.325Z,67.28
2022-11-14T11:37:45.016Z,67.91
2022-11-14T11:40:18.653Z,67.69
2022-11-14T11:43:36.610Z,67.07
2022-11-14T11:45:41.014Z,67.08
2022-11-14T11:48:16.238Z,65.48
2022-11-14T11:50:43.998Z,66.66
2022-11-14T11:53:18.492Z,66.81
2022-11-14T11:55:47.807Z,66.24
2022-11-14T11:58:22.194Z,65.08
2022-11-14T12:02:21.520Z,64.35
2022-11-14T12:04:51.122Z,65.73
2022-11-14T12:07:20.502Z,64.53
2022-11-14T12:10:09.944Z,64.59
2022-11-14T12:12:52.999Z,64.99
2022-11-14T12:15:25.626Z,65.42
2022-11-14T12:18:21.762Z,65.37
2022-11-14T12:20:55.862Z,65.31
2022-11-14T12:23:53.107Z,65.75
2022-11-14T12:26:33.952Z,65.37
2022-11-14T12:29:13.345Z,65.49
2022-11-14T12:32:31.267Z,65.48
2022-11-14T12:35:00.222Z,65.63
2022-11-14T12:37:32.621Z,65.70
2022-11-14T12:40:01.965Z,65.92
2022-11-14T12:42:29.669Z,65.20
2022-11-14T12:44:57.342Z,64.21
2022-11-14T12:47:25.887Z,64.15
2022-11-14T12:50:23.561Z,64.50
2022-11-14T12:52:53.930Z,64.05
2022-11-14T12:55:53.975Z,65.25
2022-11-14T12:58:29.428Z,64.84
2022-11-14T13:01:05.913Z,64.34
2022-11-14T13:03:42.770Z,64.05
2022-11-14T13:07:34.361Z,64.37
2022-11-14T13:10:14.957Z,64.68
2022-11-14T13:13:00.826Z,65.14
2022-11-14T13:15:49.972Z,64.78
2022-11-14T13:18:40.148Z,65.05
2022-11-14T13:21:38.603Z,65.06
2022-11-14T13:24:10.580Z,65.79
2022-11-14T13:26:49.117Z,65.23
2022-11-14T13:29:59.888Z,65.61
2022-11-14T13:33:05.005Z,65.48
2022-11-14T13:36:02.144Z,65.45
2022-11-14T13:39:14.828Z,65.99
2022-11-14T13:45:31.589Z,66.22
2022-11-14T13:48:47.466Z,66.39
2022-11-14T13:51:41.601Z,66.31
2022-11-14T13:54:17.174Z,66.28
2022-11-14T13:56:55.480Z,66.90
2022-11-14T13:59:39.341Z,66.70
2022-11-14T14:02:55.289Z,66.84
2022-11-14T14:05:31.190Z,66.85
2022-11-14T14:08:14.474Z,67.13
2022-11-14T14:10:44.252Z,66.96
2022-11-14T14:13:19.549Z,67.17
2022-11-14T14:15:50.527Z,66.88
2022-11-14T14:18:26.556Z,66.91
2022-11-14T14:20:59.647Z,67.22
2022-11-14T14:25:49.863Z,67.41
2022-11-14T14:28:22.763Z,67.48
2022-11-14T14:31:09.683Z,67.31
2022-11-14T14:33:42.341Z,67.27
2022-11-14T14:38:00.693Z,67.53
2022-11-14T14:40:30.000Z,67.50
2022-11-14T14:43:53.119Z,67.45
2022-11-14T14:46:29.713Z,67.80
2022-11-14T14:48:57.932Z,67.88
2022-11-14T14:51:33.040Z,67.77
2022-11-14T14:54:00.993Z,68.03
2022-11-14T14:56:29.898Z,67.79
2022-11-14T14:58:58.928Z,68.28
2022-11-14T15:01:32.665Z,67.85
2022-11-14T15:04:04.369Z,67.93
2022-11-14T15:06:34.068Z,67.88
2022-11-14T15:09:04.811Z,67.94
2022-11-14T15:11:33.133Z,67.82
2022-11-14T15:14:02.998Z,67.93
2022-11-14T15:16:30.912Z,67.82
2022-11-14T15:18:59.351Z,68.04
2022-11-14T15:21:28.737Z,68.05
2022-11-14T15:24:01.437Z,68.30
2022-11-14T15:26:30.645Z,68.08
2022-11-14T15:29:08.956Z,68.10
2022-11-14T15:31:37.879Z,68.42
2022-11-14T15:34:07.415Z,68.17
2022-11-14T15:36:35.359Z,68.00
2022-11-14T15:39:05.837Z,68.22
2022-11-14T15:46:06.052Z,68.23
2022-11-14T15:48:33.700Z,68.11
2022-11-14T15:52:59.085Z,68.18
2022-11-14T15:55:27.650Z,68.36
2022-11-14T15:58:13.708Z,68.52
2022-11-14T16:00:57.093Z,68.59
2022-11-14T16:05:20.794Z,68.25
2022-11-14T16:07:48.724Z,68.34
2022-11-14T16:12:16.033Z,68.20
2022-11-14T16:14:43.807Z,68.71
2022-11-14T16:17:15.056Z,68.20
2022-11-14T16:19:42.935Z,68.67
2022-11-14T16:23:00.268Z,68.71
2022-11-14T16:26:39.628Z,68.45
2022-11-14T16:29:07.805Z,68.43
2022-11-14T16:31:35.510Z,68.80
2022-11-14T16:34:03.165Z,68.56
2022-11-14T16:36:31.394Z,68.32
2022-11-14T16:39:00.628Z,68.46
2022-11-14T16:41:28.785Z,68.69
2022-11-14T16:43:58.284Z,68.88
2022-11-14T16:46:25.999Z,68.78
2022-11-14T16:48:53.651Z,68.67
2022-11-14T16:51:47.157Z,68.68
2022-11-14T16:54:10.768Z,68.80
2022-11-14T16:56:38.405Z,68.64
2022-11-14T16:59:07.875Z,68.85
2022-11-14T17:01:35.641Z,68.84
2022-11-14T17:04:03.358Z,69.05
2022-11-14T17:06:31.021Z,69.11
2022-11-14T17:08:59.397Z,68.97
2022-11-14T17:11:27.938Z,69.11
2022-11-14T17:13:55.775Z,69.18
2022-11-14T17:16:25.234Z,69.08
2022-11-14T17:18:54.038Z,69.21
2022-11-14T17:21:22.189Z,68.79
2022-11-14T17:23:54.686Z,69.07
2022-11-14T17:26:22.395Z,68.96
2022-11-14T17:28:50.021Z,68.96
2022-11-14T17:31:17.656Z,69.03
2022-11-14T17:33:51.791Z,69.25
2022-11-14T17:36:19.820Z,69.25
2022-11-14T17:38:47.501Z,69.12
2022-11-14T17:41:15.338Z,68.97
2022-11-14T17:43:43.273Z,69.42
2022-11-14T17:46:15.949Z,69.40
2022-11-14T17:48:45.859Z,69.17
2022-11-14T17:51:14.926Z,69.20
2022-11-14T17:53:43.485Z,69.76
2022-11-14T17:56:18.136Z,69.40
2022-11-14T17:58:46.545Z,69.39
2022-11-14T18:01:16.331Z,69.47
2022-11-14T18:03:44.023Z,69.28
2022-11-14T18:06:14.196Z,69.40
2022-11-14T18:08:41.912Z,69.74
2022-11-14T18:12:38.732Z,69.50
2022-11-14T18:15:07.516Z,69.47
2022-11-14T18:17:35.240Z,69.70
2022-11-14T18:20:03.153Z,69.83
2022-11-14T18:22:31.819Z,69.66
2022-11-14T18:25:04.874Z,69.69
2022-11-14T18:27:35.634Z,69.78
2022-11-14T18:30:26.762Z,69.93
2022-11-14T18:32:53.485Z,69.82
2022-11-14T18:35:21.215Z,70.00
2022-11-14T18:37:48.946Z,70.10
2022-11-14T18:40:17.065Z,70.23
2022-11-14T18:42:44.786Z,69.92
2022-11-14T18:45:13.800Z,70.12
2022-11-14T18:47:41.527Z,70.13
2022-11-14T18:50:09.781Z,70.37
2022-11-14T18:53:36.334Z,70.43
2022-11-14T18:56:05.424Z,70.42
2022-11-14T18:58:33.184Z,70.47
2022-11-14T19:01:09.645Z,70.52
2022-11-14T19:03:37.400Z,70.59
2022-11-14T19:06:05.417Z,70.14
2022-11-14T19:08:33.174Z,70.63
2022-11-14T19:11:06.392Z,70.52
2022-11-14T19:13:34.634Z,70.89
2022-11-14T19:16:03.018Z,70.90
2022-11-14T19:18:31.389Z,70.70
2022-11-14T19:20:59.862Z,70.92
2022-11-14T19:23:27.941Z,70.96
2022-11-14T19:25:59.644Z,71.11
2022-11-14T19:28:30.278Z,71.13
2022-11-14T19:31:01.893Z,71.00
2022-11-14T19:33:29.780Z,70.94
2022-11-14T19:35:57.848Z,70.79
2022-11-14T19:38:26.126Z,70.87
2022-11-14T19:40:53.762Z,70.97
2022-11-14T19:43:21.751Z,70.93
2022-11-14T19:45:50.793Z,70.93
2022-11-14T19:48:18.498Z,70.82
2022-11-14T19:50:46.147Z,70.65
2022-11-14T19:53:13.748Z,70.74
2022-11-14T19:55:41.398Z,70.95
2022-11-14T19:58:09.038Z,71.12
2022-11-14T20:00:36.628Z,71.27
2022-11-14T20:03:05.712Z,71.01
2022-11-14T20:05:33.516Z,71.01
2022-11-14T20:08:01.062Z,71.09
2022-11-14T20:10:28.767Z,70.94
2022-11-14T20:12:56.400Z,71.14
2022-11-14T20:15:24.045Z,70.99
2022-11-14T20:17:51.663Z,71.37
2022-11-14T20:20:20.793Z,71.08
2022-11-14T20:22:48.518Z,71.21
2022-11-14T20:25:17.016Z,71.32
2022-11-14T20:27:44.649Z,71.26
2022-11-14T20:30:13.122Z,71.13
2022-11-14T20:32:40.792Z,71.23
2022-11-14T20:35:08.828Z,71.37
2022-11-14T20:37:37.852Z,70.98
2022-11-14T20:40:06.483Z,71.27
2022-11-14T20:42:34.155Z,71.25
2022-11-14T20:45:01.843Z,71.25
2022-11-14T20:47:39.676Z,70.98
2022-11-14T20:51:07.856Z,71.55
2022-11-14T20:55:40.174Z,71.41
2022-11-14T20:58:07.907Z,71.00
2022-11-14T21:00:35.593Z,70.89
2022-11-14T21:03:03.305Z,71.24
2022-11-14T21:05:31.093Z,70.97
2022-11-14T21:07:58.768Z,71.20
2022-11-14T21:10:43.834Z,71.00
2022-11-14T21:13:30.931Z,71.26
2022-11-14T21:15:58.842Z,71.28
2022-11-14T21:18:26.563Z,71.45
2022-11-14T21:21:02.132Z,71.60
2022-11-14T21:23:29.812Z,71.61
2022-11-14T21:26:06.808Z,71.39
2022-11-14T21:28:36.840Z,71.66
2022-11-14T21:31:14.988Z,71.36
2022-11-14T21:33:42.710Z,71.49
2022-11-14T21:36:42.830Z,71.35
2022-11-14T21:38:59.224Z,71.44
2022-11-14T21:41:28.249Z,71.51
2022-11-14T21:43:58.389Z,71.22
2022-11-14T21:46:26.540Z,71.34
2022-11-14T21:48:55.599Z,71.31
2022-11-14T21:51:24.457Z,71.31
2022-11-14T21:53:55.048Z,71.13
2022-11-14T21:56:24.140Z,71.29
2022-11-14T21:59:12.653Z,71.19
2022-11-14T22:02:00.535Z,71.17
2022-11-14T22:04:28.598Z,71.17
2022-11-14T22:06:56.623Z,71.14
2022-11-14T22:09:24.730Z,71.44
2022-11-14T22:11:52.401Z,71.05
2022-11-14T22:14:20.039Z,71.33
2022-11-14T22:16:49.165Z,71.00
2022-11-14T22:19:16.912Z,70.97
2022-11-14T22:21:44.647Z,71.16
2022-11-14T22:24:12.245Z,70.85
2022-11-14T22:26:41.349Z,71.21
2022-11-14T22:29:09.646Z,70.85
2022-11-14T22:31:38.215Z,71.15
2022-11-14T22:34:07.967Z,71.08
2022-11-14T22:36:36.714Z,71.60
2022-11-14T22:39:05.460Z,72.82
2022-11-14T22:41:34.162Z,71.90
2022-11-14T22:44:02.225Z,71.62
2022-11-14T22:46:30.191Z,71.67
2022-11-14T22:48:58.186Z,71.84
2022-11-14T22:51:28.670Z,71.86
2022-11-14T22:53:57.618Z,71.72
2022-11-14T22:56:26.896Z,71.74
2022-11-14T22:58:55.097Z,71.94
2022-11-14T23:01:24.259Z,71.78
2022-11-14T23:03:55.206Z,71.80
2022-11-14T23:06:23.821Z,71.91
2022-11-14T23:08:53.213Z,71.72
2022-11-14T23:11:23.023Z,71.68
2022-11-14T23:13:52.770Z,72.05
2022-11-14T23:16:21.638Z,71.86
2022-11-14T23:18:51.045Z,71.99
2022-11-14T23:21:20.189Z,72.13
2022-11-14T23:23:48.074Z,72.05
2022-11-14T23:26:18.917Z,71.95
2022-11-14T23:28:46.691Z,72.02
2022-11-14T23:31:19.449Z,72.28
2022-11-14T23:33:47.290Z,72.17
2022-11-14T23:36:15.398Z,72.43
2022-11-14T23:38:43.246Z,72.57
2022-11-14T23:41:15.680Z,72.56
2022-11-14T23:43:44.714Z,72.60
2022-11-14T23:46:12.429Z,72.52
2022-11-14T23:48:40.066Z,72.38
2022-11-14T23:51:08.213Z,72.56
2022-11-14T23:53:35.906Z,72.50
2022-11-14T23:56:03.950Z,72.41
2022-11-14T23:58:31.807Z,72.54
